Knightdale, North Carolina
Current Conditions -  °F | °C
As of 1:55 PM on Friday 31 Oct 2014 (Local Time) from KLHZ Reporting Station
Broken Clouds Broken Clouds  
Wind Chill: 59°   Ceiling: 4300
Heat Index: 59°   Visibility: 10mi
Dew Point: 41°   Wind: 5mph
Humidity: 51%   Direction: 360°N
Pressure: 29.86"   Gusts: NA
Location:  35.79°N, 78.48°W
Report Text: KLHZ 311755Z AUTO 36004KT 10SM BKN043 15/05 A2986 RMK AO2
Loading
Personal Weather Stations






























Interactive Weather Map
Tropical Storm Tracking
New forecast layout! Learn more

10-Day Weather Forecast

Advertisements
Track Severe Weather on mobile